Time;durP1;ratioP1;P1;durP2;ratioP2;P2;SDS_P1;SDS_P2;PMS_P1;PMS_P2;Temp;Humidity;BMP_temperature;BMP_pressure;BME280_temperature;BME280_humidity;BME280_pressure;Samples;Min_cycle;Max_cycle;Signal;HPM_P1;HPM_P2
2023/04/16 00:00:09;;;;;;;4.17;2.10;;;8.90;99.90;;;;;;5068084;28;20060;-72
2023/04/16 00:02:35;;;;;;;4.88;2.35;;;8.90;99.90;;;;;;5067817;28;20426;-71
2023/04/16 00:05:01;;;;;;;2.95;2.00;;;8.90;99.90;;;;;;5068467;28;20036;-70
2023/04/16 00:07:26;;;;;;;2.87;1.77;;;8.90;99.90;;;;;;5076210;28;20012;-69
2023/04/16 00:09:52;;;;;;;5.33;2.13;;;9.00;99.90;;;;;;5075643;28;20025;-69
2023/04/16 00:12:17;;;;;;;3.27;1.80;;;8.90;99.90;;;;;;5069100;28;20036;-70
2023/04/16 00:14:43;;;;;;;4.60;2.07;;;9.00;99.90;;;;;;5068445;28;20044;-70
2023/04/16 00:17:09;;;;;;;5.53;2.17;;;9.00;99.90;;;;;;5068123;28;20119;-70
2023/04/16 00:19:35;;;;;;;4.10;1.88;;;9.00;99.90;;;;;;5052576;28;20409;-69
2023/04/16 00:22:01;;;;;;;3.15;1.83;;;9.00;99.90;;;;;;5067465;28;20063;-70
2023/04/16 00:24:26;;;;;;;3.17;2.07;;;8.90;99.90;;;;;;5063821;28;20403;-70
2023/04/16 00:26:52;;;;;;;3.43;2.07;;;8.90;99.90;;;;;;5066396;28;20032;-69
2023/04/16 00:29:18;;;;;;;4.07;1.90;;;8.90;99.90;;;;;;5047969;28;20040;-69
2023/04/16 00:31:43;;;;;;;5.27;2.10;;;8.90;99.90;;;;;;5064941;28;20025;-71
2023/04/16 00:34:09;;;;;;;3.07;2.37;;;8.80;99.90;;;;;;5067627;28;20503;-70
2023/04/16 00:36:35;;;;;;;6.53;2.10;;;8.70;99.90;;;;;;5066422;28;20028;-70
2023/04/16 00:39:00;;;;;;;4.80;2.30;;;8.70;99.90;;;;;;5067897;28;20033;-72
2023/04/16 00:41:26;;;;;;;2.77;1.70;;;8.60;99.90;;;;;;5053118;28;20036;-71
2023/04/16 00:43:52;;;;;;;8.07;1.73;;;8.60;99.90;;;;;;5067739;28;20035;-69
2023/04/16 00:46:23;;;;;;;3.35;2.13;;;8.60;99.90;;;;;;5067960;28;20119;-69
2023/04/16 00:48:50;;;;;;;2.33;1.92;;;8.70;99.90;;;;;;5067705;28;20032;-70
2023/04/16 00:51:17;;;;;;;;;;;8.80;99.90;;;;;;5067889;28;20028;-70
2023/04/16 00:53:44;;;;;;;6.32;2.40;;;8.80;99.90;;;;;;5067423;28;19912;-70
2023/04/16 00:56:11;;;;;;;2.20;1.52;;;8.90;99.90;;;;;;5066254;28;20032;-70
2023/04/16 00:58:38;;;;;;;2.60;2.10;;;8.90;99.90;;;;;;5060926;28;20032;-70
2023/04/16 01:01:04;;;;;;;3.58;2.10;;;8.90;99.90;;;;;;5067840;28;20100;-70
2023/04/16 01:03:37;;;;;;;3.65;2.45;;;9.00;99.90;;;;;;5068206;28;20039;-70
2023/04/16 01:06:03;;;;;;;3.67;2.33;;;9.00;99.90;;;;;;5067894;28;20028;-70
2023/04/16 01:08:28;;;;;;;3.97;2.40;;;9.10;99.90;;;;;;5067355;28;20037;-72
2023/04/16 01:10:54;;;;;;;5.30;2.63;;;9.00;99.90;;;;;;5066493;28;20060;-72
2023/04/16 01:13:19;;;;;;;3.97;1.93;;;9.00;99.90;;;;;;5049078;28;20029;-69
2023/04/16 01:15:45;;;;;;;5.13;2.57;;;9.00;99.90;;;;;;5067067;28;20036;-69
2023/04/16 01:18:15;;;;;;;3.87;2.30;;;9.00;99.90;;;;;;5067233;28;20040;-68
2023/04/16 01:20:40;;;;;;;5.30;1.95;;;9.00;99.90;;;;;;5066761;28;20388;-70
2023/04/16 01:23:06;;;;;;;6.20;2.57;;;8.90;99.90;;;;;;5067348;28;20020;-70
2023/04/16 01:25:31;;;;;;;5.70;2.57;;;9.00;99.90;;;;;;5067531;28;20125;-70
2023/04/16 01:27:58;;;;;;;8.67;2.80;;;9.00;99.90;;;;;;5067251;28;20507;-71
2023/04/16 01:30:24;;;;;;;5.82;3.65;;;9.00;99.90;;;;;;5068816;28;20023;-71
2023/04/16 01:32:49;;;;;;;5.95;3.22;;;8.90;99.90;;;;;;5071001;28;20029;-71
2023/04/16 01:35:16;;;;;;;5.47;2.63;;;9.00;99.90;;;;;;5070831;28;20120;-70
2023/04/16 01:37:43;;;;;;;8.70;2.22;;;8.90;99.90;;;;;;5070326;28;20033;-70
2023/04/16 01:40:08;;;;;;;5.03;2.97;;;8.90;99.90;;;;;;5071307;28;20032;-71
2023/04/16 01:42:34;;;;;;;4.72;2.40;;;9.00;99.90;;;;;;5070765;28;20035;-69
2023/04/16 01:45:00;;;;;;;6.33;2.70;;;9.00;99.90;;;;;;5068765;28;20033;-71
2023/04/16 01:47:26;;;;;;;3.70;2.57;;;9.00;99.90;;;;;;5070766;28;20393;-71
2023/04/16 01:49:51;;;;;;;6.03;3.83;;;8.90;99.90;;;;;;5070885;28;20683;-70
2023/04/16 01:52:17;;;;;;;7.03;3.27;;;8.70;99.90;;;;;;5070391;28;20074;-71
2023/04/16 01:54:42;;;;;;;4.20;2.97;;;8.50;99.90;;;;;;5076367;28;20040;-69
2023/04/16 01:57:08;;;;;;;8.73;3.07;;;8.50;99.90;;;;;;5079821;28;20029;-70
2023/04/16 01:59:34;;;;;;;5.30;3.87;;;8.40;99.90;;;;;;5072727;28;20023;-68
2023/04/16 02:02:13;;;;;;;5.57;3.70;;;8.30;99.90;;;;;;5071226;28;20032;-70
2023/04/16 02:04:40;;;;;;;7.72;3.83;;;8.10;99.90;;;;;;5071030;28;20083;-72
2023/04/16 02:07:07;;;;;;;6.25;4.20;;;8.00;99.90;;;;;;5070588;28;20029;-70
2023/04/16 02:09:36;;;;;;;;;;;7.90;99.90;;;;;;5070431;28;20043;-70
2023/04/16 02:12:02;;;;;;;7.57;4.70;;;7.80;99.90;;;;;;5070114;28;20395;-72
2023/04/16 02:14:28;;;;;;;6.30;4.77;;;7.70;99.90;;;;;;5070307;28;20037;-71
2023/04/16 02:16:54;;;;;;;12.93;5.60;;;7.70;99.90;;;;;;5070641;28;20040;-72
2023/04/16 02:19:20;;;;;;;6.80;5.03;;;7.60;99.90;;;;;;5052707;28;20526;-72
2023/04/16 02:21:46;;;;;;;9.80;5.65;;;7.60;99.90;;;;;;5070832;28;20127;-70
2023/04/16 02:24:12;;;;;;;8.13;5.53;;;7.50;99.90;;;;;;5070597;28;20469;-71
2023/04/16 02:26:38;;;;;;;15.02;5.63;;;7.50;99.90;;;;;;5069520;28;20032;-71
2023/04/16 02:29:03;;;;;;;8.10;5.60;;;7.50;99.90;;;;;;5070422;28;20058;-71
2023/04/16 02:31:30;;;;;;;9.03;6.40;;;7.40;99.90;;;;;;5064623;28;20029;-70
2023/04/16 02:33:55;;;;;;;;;;;7.40;99.90;;;;;;5050681;28;20025;-71
2023/04/16 02:36:21;;;;;;;11.48;6.93;;;7.30;99.90;;;;;;5058052;28;19908;-71
2023/04/16 02:38:47;;;;;;;12.03;6.67;;;7.30;99.90;;;;;;5068569;28;20082;-71
2023/04/16 02:41:12;;;;;;;8.70;6.43;;;7.30;99.90;;;;;;5069283;28;20119;-70
2023/04/16 02:43:38;;;;;;;11.57;7.50;;;7.40;99.90;;;;;;5069304;28;20025;-72
2023/04/16 02:46:04;;;;;;;14.43;7.43;;;7.30;99.90;;;;;;5070295;28;20107;-72
2023/04/16 02:48:29;;;;;;;14.33;7.33;;;7.30;99.90;;;;;;5069745;28;20032;-71
2023/04/16 02:50:55;;;;;;;12.87;8.20;;;7.40;99.90;;;;;;5055089;28;20059;-71
2023/04/16 02:53:20;;;;;;;10.23;7.67;;;7.40;99.90;;;;;;5069320;28;20028;-71
2023/04/16 02:55:51;;;;;;;13.57;8.30;;;7.40;99.90;;;;;;5070059;28;20036;-69
2023/04/16 02:58:17;;;;;;;16.25;8.98;;;7.40;99.90;;;;;;5069278;28;20029;-71
2023/04/16 03:00:43;;;;;;;15.25;9.40;;;7.40;99.90;;;;;;5069912;28;20385;-71
2023/04/16 03:03:10;;;;;;;12.43;8.43;;;7.40;99.90;;;;;;5069502;28;20550;-70
2023/04/16 03:05:36;;;;;;;17.08;9.73;;;7.30;99.90;;;;;;5069328;28;20029;-70
2023/04/16 03:08:03;;;;;;;14.90;9.33;;;7.30;99.90;;;;;;5069755;28;20029;-71
2023/04/16 03:10:28;;;;;;;20.17;10.25;;;7.30;99.90;;;;;;5069645;28;20025;-70
2023/04/16 03:12:54;;;;;;;19.13;9.63;;;7.30;99.90;;;;;;5069499;28;20037;-70
2023/04/16 03:15:19;;;;;;;14.53;9.80;;;7.30;99.90;;;;;;5069097;28;20411;-71
2023/04/16 03:17:45;;;;;;;16.17;10.30;;;7.20;99.90;;;;;;5067226;28;20033;-72
2023/04/16 03:20:11;;;;;;;12.47;10.33;;;7.20;99.90;;;;;;5066339;28;20064;-71
2023/04/16 03:22:38;;;;;;;16.90;10.55;;;7.30;99.90;;;;;;5065821;28;20020;-71
2023/04/16 03:25:04;;;;;;;20.27;10.60;;;7.30;99.90;;;;;;5067950;28;20059;-70
2023/04/16 03:27:30;;;;;;;14.15;10.13;;;7.30;99.90;;;;;;5068289;28;20328;-71
2023/04/16 03:29:56;;;;;;;17.77;10.10;;;7.20;99.90;;;;;;5067910;28;20090;-70
2023/04/16 03:32:21;;;;;;;16.40;10.33;;;7.20;99.90;;;;;;5068036;28;20013;-72
2023/04/16 03:34:47;;;;;;;14.67;10.83;;;7.10;99.90;;;;;;5049608;28;20037;-72
2023/04/16 03:37:12;;;;;;;17.53;11.20;;;7.00;99.90;;;;;;5068219;28;20029;-70
2023/04/16 03:39:38;;;;;;;17.17;10.37;;;7.00;99.90;;;;;;5067507;28;20024;-72
2023/04/16 03:42:04;;;;;;;16.70;11.07;;;6.90;99.90;;;;;;5067096;28;20029;-70
2023/04/16 03:44:29;;;;;;;16.58;10.35;;;6.90;99.90;;;;;;5071097;28;20535;-72
2023/04/16 03:46:55;;;;;;;18.40;10.68;;;6.80;99.90;;;;;;5084326;28;20028;-70
2023/04/16 03:49:21;;;;;;;15.38;10.32;;;6.70;99.90;;;;;;5072497;28;20028;-71
2023/04/16 03:51:47;;;;;;;19.60;10.37;;;6.70;99.90;;;;;;5068353;28;20040;-72
2023/04/16 03:54:12;;;;;;;13.87;10.33;;;6.60;99.90;;;;;;5059479;28;20492;-71
2023/04/16 03:56:41;;;;;;;22.60;12.30;;;6.70;99.90;;;;;;5061503;28;20032;-73
2023/04/16 03:59:06;;;;;;;15.77;10.63;;;6.60;99.90;;;;;;5067628;28;20492;-72
2023/04/16 04:01:32;;;;;;;20.67;11.50;;;6.50;99.90;;;;;;5067255;28;20082;-71
2023/04/16 04:03:57;;;;;;;17.43;11.13;;;6.50;99.90;;;;;;5067407;28;20028;-70
2023/04/16 04:06:23;;;;;;;22.23;11.03;;;6.50;99.90;;;;;;5067738;28;20033;-70
2023/04/16 04:08:49;;;;;;;20.07;11.00;;;6.50;99.90;;;;;;5067321;28;20340;-71
2023/04/16 04:11:15;;;;;;;18.13;11.27;;;6.70;99.90;;;;;;5067405;28;20096;-71
2023/04/16 04:13:42;;;;;;;16.70;10.70;;;6.80;99.90;;;;;;5067982;28;20058;-71
2023/04/16 04:16:07;;;;;;;20.35;11.48;;;6.80;99.90;;;;;;5066217;28;20024;-70
2023/04/16 04:18:33;;;;;;;21.30;11.97;;;6.80;99.90;;;;;;5067212;28;20097;-70
2023/04/16 04:20:59;;;;;;;15.60;11.37;;;6.80;99.90;;;;;;5066616;28;20036;-72
2023/04/16 04:23:24;;;;;;;20.10;11.03;;;6.80;99.90;;;;;;5065659;28;20131;-72
2023/04/16 04:25:50;;;;;;;16.20;11.13;;;6.80;99.90;;;;;;5064933;28;20411;-71
2023/04/16 04:28:15;;;;;;;23.97;12.70;;;6.80;99.90;;;;;;5074612;28;20027;-72
2023/04/16 04:30:41;;;;;;;20.97;12.30;;;7.00;99.90;;;;;;5066516;28;20036;-70
2023/04/16 04:33:07;;;;;;;18.47;13.83;;;6.90;99.90;;;;;;5069271;28;20037;-71
2023/04/16 04:35:32;;;;;;;24.10;13.37;;;7.00;99.90;;;;;;5053380;28;20040;-71
2023/04/16 04:37:58;;;;;;;26.63;14.27;;;7.10;99.90;;;;;;5068434;28;20039;-71
2023/04/16 04:40:24;;;;;;;22.00;13.87;;;7.20;99.90;;;;;;5068787;28;20111;-70
2023/04/16 04:42:49;;;;;;;18.63;13.13;;;7.20;99.90;;;;;;5069613;28;20495;-70
2023/04/16 04:45:15;;;;;;;19.90;12.57;;;7.30;99.90;;;;;;5066706;28;20028;-71
2023/04/16 04:47:41;;;;;;;20.42;13.32;;;7.30;99.90;;;;;;5065577;28;20075;-71
2023/04/16 04:50:07;;;;;;;18.75;13.23;;;7.40;99.90;;;;;;5074487;28;20083;-71
2023/04/16 04:52:33;;;;;;;18.33;14.13;;;7.40;99.90;;;;;;5039532;28;20029;-71
2023/04/16 04:54:58;;;;;;;20.00;12.07;;;7.30;99.90;;;;;;5068131;28;20048;-73
2023/04/16 04:57:24;;;;;;;19.90;14.53;;;7.30;99.90;;;;;;5067711;28;20082;-73
2023/04/16 04:59:50;;;;;;;23.63;14.47;;;7.20;99.90;;;;;;5069624;28;20036;-73
2023/04/16 05:02:15;;;;;;;24.77;14.87;;;7.10;99.90;;;;;;5067175;28;20032;-72
2023/04/16 05:04:42;;;;;;;32.87;14.87;;;7.10;99.90;;;;;;5069662;28;20036;-72
2023/04/16 05:07:08;;;;;;;19.67;14.27;;;7.20;99.90;;;;;;5076062;28;20344;-72
2023/04/16 05:09:33;;;;;;;19.63;14.03;;;7.20;99.90;;;;;;5069924;28;20028;-70
2023/04/16 05:11:59;;;;;;;26.30;15.53;;;7.20;99.90;;;;;;5055526;28;20317;-72
2023/04/16 05:14:25;;;;;;;23.80;14.30;;;7.20;99.90;;;;;;5072650;28;20106;-73
2023/04/16 05:16:50;;;;;;;26.83;15.03;;;7.20;99.90;;;;;;5071146;28;20024;-72
2023/04/16 05:19:16;;;;;;;24.80;15.13;;;7.20;99.90;;;;;;5071917;28;20298;-74
2023/04/16 05:21:42;;;;;;;17.90;13.75;;;7.30;99.90;;;;;;5071157;28;20039;-72
2023/04/16 05:24:07;;;;;;;22.13;14.00;;;7.30;99.90;;;;;;5071556;28;20051;-74
2023/04/16 05:26:33;;;;;;;27.98;14.50;;;7.40;99.90;;;;;;5052025;28;20028;-74
2023/04/16 05:28:59;;;;;;;20.67;13.80;;;7.40;99.90;;;;;;5071156;28;20043;-72
2023/04/16 05:31:25;;;;;;;27.40;14.23;;;7.50;99.90;;;;;;5071488;28;20043;-71
2023/04/16 05:33:50;;;;;;;21.98;14.18;;;7.50;99.90;;;;;;5074013;28;20446;-71
2023/04/16 05:36:16;;;;;;;21.23;12.23;;;7.40;99.90;;;;;;5074635;28;20555;-70
2023/04/16 05:38:43;;;;;;;25.73;15.43;;;7.50;99.90;;;;;;5090358;28;20032;-68
2023/04/16 05:41:08;;;;;;;21.73;14.32;;;7.50;99.90;;;;;;5086274;28;20028;-70
2023/04/16 05:43:34;;;;;;;27.00;15.07;;;7.50;99.90;;;;;;5074263;28;20039;-70
2023/04/16 05:45:59;;;;;;;19.90;14.07;;;7.50;99.90;;;;;;5069656;28;20488;-71
2023/04/16 05:48:25;;;;;;;21.67;14.70;;;7.50;99.90;;;;;;5072642;28;20044;-70
2023/04/16 05:50:50;;;;;;;20.53;14.57;;;7.50;99.90;;;;;;5070530;28;20025;-71
2023/04/16 05:53:17;;;;;;;19.83;14.43;;;7.50;99.90;;;;;;5069968;28;20492;-70
2023/04/16 05:55:43;;;;;;;20.00;14.05;;;7.60;99.90;;;;;;5074042;28;20036;-70
2023/04/16 05:58:09;;;;;;;23.15;14.38;;;7.70;99.90;;;;;;5069848;28;20020;-70
2023/04/16 06:00:35;;;;;;;20.40;14.53;;;7.70;99.90;;;;;;5069528;28;20131;-71
2023/04/16 06:03:01;;;;;;;22.45;14.55;;;7.70;99.90;;;;;;5073768;28;20431;-69
2023/04/16 06:05:27;;;;;;;20.30;14.00;;;7.70;99.90;;;;;;5075860;28;20037;-72
2023/04/16 06:07:53;;;;;;;21.67;14.43;;;7.80;99.90;;;;;;5070451;28;20036;-72
2023/04/16 06:10:18;;;;;;;21.23;13.83;;;7.90;99.90;;;;;;5064080;28;20055;-72
2023/04/16 06:12:44;;;;;;;20.53;14.67;;;7.90;99.90;;;;;;5072935;28;20286;-73
2023/04/16 06:15:10;;;;;;;19.30;13.82;;;7.90;99.90;;;;;;5068902;28;20073;-71
2023/04/16 06:17:36;;;;;;;21.87;15.07;;;8.00;99.90;;;;;;5071855;28;20514;-70
2023/04/16 06:20:01;;;;;;;20.60;14.37;;;8.00;99.90;;;;;;5051594;28;20048;-72
2023/04/16 06:22:27;;;;;;;22.93;15.27;;;7.90;99.90;;;;;;5077025;28;20032;-71
2023/04/16 06:24:53;;;;;;;26.30;15.30;;;7.90;99.90;;;;;;5068989;28;20063;-71
2023/04/16 06:27:19;;;;;;;20.87;15.40;;;7.90;99.90;;;;;;5076864;28;20032;-71
2023/04/16 06:29:44;;;;;;;19.20;12.90;;;8.00;99.90;;;;;;5068630;28;20417;-70
2023/04/16 06:32:10;;;;;;;21.70;13.53;;;8.10;99.90;;;;;;5064088;28;20028;-69
2023/04/16 06:34:37;;;;;;;20.75;13.88;;;8.30;99.90;;;;;;5051710;28;20762;-69
2023/04/16 06:37:03;;;;;;;24.45;14.48;;;8.30;99.90;;;;;;5068324;28;20036;-69
2023/04/16 06:39:29;;;;;;;19.43;13.37;;;8.40;99.90;;;;;;5063388;28;20029;-70
2023/04/16 06:41:55;;;;;;;26.80;14.35;;;8.50;99.90;;;;;;5068244;28;20028;-69
2023/04/16 06:44:20;;;;;;;26.65;14.18;;;8.40;99.90;;;;;;5054577;28;20028;-69
2023/04/16 06:46:46;;;;;;;19.57;13.67;;;8.50;99.90;;;;;;5072101;28;20035;-70
2023/04/16 06:49:12;;;;;;;19.95;13.60;;;8.50;99.90;;;;;;5066326;28;20035;-70
2023/04/16 06:51:38;;;;;;;18.23;13.53;;;8.70;99.90;;;;;;5067135;28;20636;-69
2023/04/16 06:54:03;;;;;;;18.37;12.70;;;8.60;99.90;;;;;;5066010;28;20558;-71
2023/04/16 06:56:29;;;;;;;24.20;13.20;;;8.50;99.90;;;;;;5064232;28;20040;-70
2023/04/16 06:58:56;;;;;;;20.37;13.53;;;8.60;99.90;;;;;;5066005;28;20373;-70
2023/04/16 07:01:22;;;;;;;19.60;13.20;;;8.80;99.90;;;;;;5069318;28;20314;-70
2023/04/16 07:03:48;;;;;;;19.73;13.57;;;9.00;99.90;;;;;;5071840;28;20871;-70
2023/04/16 07:06:13;;;;;;;18.20;11.87;;;9.20;99.90;;;;;;5051730;28;20036;-70
2023/04/16 07:08:40;;;;;;;22.20;13.60;;;9.10;99.90;;;;;;5069116;28;20063;-70
2023/04/16 07:11:05;;;;;;;19.13;12.67;;;9.30;99.90;;;;;;5069214;28;20075;-70
2023/04/16 07:13:31;;;;;;;18.00;12.87;;;9.20;99.90;;;;;;5069872;28;20028;-71
2023/04/16 07:15:56;;;;;;;20.87;13.00;;;9.20;99.90;;;;;;5063582;28;20032;-71
2023/04/16 07:18:22;;;;;;;17.40;13.23;;;9.10;99.90;;;;;;5069074;28;20768;-72
2023/04/16 07:20:48;;;;;;;20.80;12.30;;;9.00;99.90;;;;;;5069122;28;20031;-70
2023/04/16 07:23:15;;;;;;;18.10;12.93;;;9.00;99.90;;;;;;5065401;28;20080;-70
2023/04/16 07:25:40;;;;;;;17.05;13.10;;;9.10;99.90;;;;;;5064210;28;20103;-69
2023/04/16 07:28:06;;;;;;;20.63;12.95;;;9.30;99.90;;;;;;5068067;28;20123;-70
2023/04/16 07:30:35;;;;;;;35.77;17.67;;;9.20;99.90;;;;;;5076206;28;20028;-70
2023/04/16 07:33:03;;;;;;;26.83;15.85;;;9.40;99.90;;;;;;5073132;28;20040;-70
2023/04/16 07:35:30;;;;;;;30.42;17.60;;;9.50;99.90;;;;;;5072354;28;20036;-68
2023/04/16 07:37:55;;;;;;;26.10;12.55;;;9.70;99.90;;;;;;5069421;28;20032;-71
2023/04/16 07:40:22;;;;;;;19.93;11.83;;;9.80;99.90;;;;;;5046373;28;20451;-71
2023/04/16 07:42:48;;;;;;;16.52;11.80;;;9.70;99.90;;;;;;5066137;28;20060;-69
2023/04/16 07:45:15;;;;;;;16.60;11.40;;;9.80;99.90;;;;;;5069855;28;20079;-69
2023/04/16 07:47:41;;;;;;;17.48;12.05;;;10.00;99.90;;;;;;5070301;28;20013;-72
2023/04/16 07:50:07;;;;;;;19.73;11.53;;;10.20;99.90;;;;;;5073702;28;20047;-70
2023/04/16 07:52:33;;;;;;;21.60;11.60;;;10.40;99.90;;;;;;5079133;28;20029;-71
2023/04/16 07:54:58;;;;;;;15.53;10.87;;;11.00;99.90;;;;;;5068531;28;20032;-71
2023/04/16 07:57:24;;;;;;;18.27;10.83;;;12.20;99.90;;;;;;5074595;28;20108;-73
2023/04/16 07:59:50;;;;;;;19.73;10.40;;;12.30;99.90;;;;;;5068926;28;20063;-71
2023/04/16 08:02:15;;;;;;;14.27;9.77;;;11.90;99.90;;;;;;5070898;28;20041;-75
2023/04/16 08:04:42;;;;;;;16.10;10.70;;;11.40;99.90;;;;;;5069924;28;20115;-74
2023/04/16 08:07:08;;;;;;;;;;;11.10;99.90;;;;;;5069504;28;20032;-73
2023/04/16 08:09:35;;;;;;;14.27;9.82;;;11.10;99.90;;;;;;5068622;28;19913;-73
2023/04/16 08:12:01;;;;;;;16.05;10.10;;;10.90;99.90;;;;;;5067021;28;20111;-72
2023/04/16 08:14:27;;;;;;;18.15;10.80;;;10.90;99.90;;;;;;5051942;28;20165;-71
2023/04/16 08:16:52;;;;;;;16.83;10.30;;;10.90;99.90;;;;;;5065607;28;20131;-71
2023/04/16 08:19:18;;;;;;;18.57;10.80;;;10.80;99.90;;;;;;5070441;28;20029;-70
2023/04/16 08:21:45;;;;;;;15.97;10.57;;;11.00;99.90;;;;;;5072916;28;20036;-70
2023/04/16 08:24:11;;;;;;;13.35;9.65;;;11.20;99.90;;;;;;5069332;28;20060;-70
2023/04/16 08:26:36;;;;;;;13.80;9.93;;;11.20;99.90;;;;;;5067733;28;20056;-71
2023/04/16 08:29:02;;;;;;;14.60;10.77;;;11.00;99.90;;;;;;5066831;28;20442;-71
2023/04/16 08:31:28;;;;;;;14.80;10.40;;;10.90;99.90;;;;;;5071043;28;20035;-71
2023/04/16 08:33:53;;;;;;;17.30;10.77;;;10.90;99.90;;;;;;5069557;28;20033;-71
2023/04/16 08:36:19;;;;;;;15.03;10.53;;;11.00;99.90;;;;;;5067151;28;20056;-71
2023/04/16 08:38:45;;;;;;;13.20;10.07;;;11.10;99.90;;;;;;5062014;28;20029;-74
2023/04/16 08:41:12;;;;;;;16.13;9.82;;;11.00;99.90;;;;;;5069105;28;20042;-71
2023/04/16 08:43:42;;;;;;;17.73;9.98;;;11.00;99.90;;;;;;5069326;28;20119;-72
2023/04/16 08:46:09;;;;;;;15.38;9.23;;;11.20;99.90;;;;;;5064603;28;20498;-71
2023/04/16 08:48:36;;;;;;;15.43;9.57;;;10.90;99.90;;;;;;5071619;28;20480;-71
2023/04/16 08:51:02;;;;;;;19.20;9.85;;;10.80;99.90;;;;;;5065933;28;20060;-73
2023/04/16 08:53:47;;;;;;;15.50;9.90;;;11.00;99.90;;;;;;5069620;28;20114;-70
2023/04/16 08:56:14;;;;;;;15.57;9.02;;;11.00;99.90;;;;;;5069490;28;20037;-72
2023/04/16 08:58:40;;;;;;;20.38;9.25;;;11.00;99.90;;;;;;5067417;28;20531;-72
2023/04/16 09:01:08;;;;;;;14.03;9.20;;;10.70;99.90;;;;;;5066633;28;20033;-73
2023/04/16 09:03:35;;;;;;;13.88;9.07;;;10.70;99.90;;;;;;5069065;28;20051;-74
2023/04/16 09:06:03;;;;;;;14.90;9.50;;;10.70;99.90;;;;;;5064785;28;20057;-73
2023/04/16 09:08:28;;;;;;;12.07;9.52;;;10.50;99.90;;;;;;5065945;28;20064;-74
2023/04/16 09:10:58;;;;;;;18.25;10.43;;;10.70;99.90;;;;;;5065026;28;20052;-73
2023/04/16 09:13:24;;;;;;;16.05;9.38;;;10.60;99.90;;;;;;5065907;28;20033;-73
2023/04/16 09:15:53;;;;;;;17.83;9.43;;;10.60;99.90;;;;;;5063883;28;20045;-73
2023/04/16 09:18:20;;;;;;;19.10;10.40;;;10.70;99.90;;;;;;5078137;28;20044;-73
2023/04/16 09:20:47;;;;;;;17.33;10.38;;;10.70;99.90;;;;;;5075906;28;20033;-77
2023/04/16 09:23:13;;;;;;;16.90;10.13;;;10.70;99.90;;;;;;5072246;28;20085;-72
2023/04/16 09:25:38;;;;;;;13.97;9.00;;;10.70;99.90;;;;;;5070483;28;20724;-73
2023/04/16 09:28:04;;;;;;;13.00;9.53;;;10.80;99.90;;;;;;5067630;28;20059;-75
2023/04/16 09:30:31;;;;;;;14.83;8.87;;;10.80;99.90;;;;;;5070258;28;20095;-73
2023/04/16 09:33:23;;;;;;;;;;;10.90;99.90;;;;;;5072702;28;20307;-71
2023/04/16 09:35:51;;;;;;;16.13;9.18;;;11.10;99.90;;;;;;5055589;28;19916;-74
2023/04/16 09:38:17;;;;;;;15.63;9.30;;;11.10;99.90;;;;;;5071364;28;20029;-71
2023/04/16 09:40:42;;;;;;;12.75;8.68;;;11.30;99.90;;;;;;5067278;28;20032;-73
2023/04/16 09:43:16;;;;;;;26.30;10.60;;;11.60;99.90;;;;;;5061758;28;20040;-74
2023/04/16 09:45:50;;;;;;;14.88;9.40;;;11.20;99.90;;;;;;5066889;28;20533;-74
2023/04/16 09:48:26;;;;;;;11.73;7.53;;;11.20;99.90;;;;;;5067997;28;20117;-75
2023/04/16 09:50:52;;;;;;;12.25;8.60;;;11.10;99.90;;;;;;5071508;28;20036;-75
2023/04/16 09:53:28;;;;;;;14.10;8.20;;;11.20;99.90;;;;;;5067942;28;20039;-73
2023/04/16 09:56:02;;;;;;;15.57;9.07;;;11.30;99.90;;;;;;5068695;28;20036;-72
2023/04/16 09:58:28;;;;;;;16.83;9.65;;;11.30;99.90;;;;;;5070657;28;20670;-73
2023/04/16 10:01:08;;;;;;;14.90;9.10;;;11.40;99.90;;;;;;5065025;28;20155;-73
2023/04/16 10:03:35;;;;;;;15.38;8.52;;;11.70;99.90;;;;;;5067652;28;20040;-74
2023/04/16 10:06:19;;;;;;;18.15;8.73;;;11.90;99.90;;;;;;5066402;28;20043;-73
2023/04/16 10:08:57;;;;;;;16.42;8.13;;;11.90;99.90;;;;;;5071114;28;20107;-76
2023/04/16 10:11:23;;;;;;;10.60;7.18;;;12.00;99.90;;;;;;5070518;28;20545;-77
2023/04/16 10:13:49;;;;;;;12.05;7.72;;;12.00;99.90;;;;;;5074464;28;20537;-75
2023/04/16 10:16:16;;;;;;;13.20;8.32;;;11.90;99.90;;;;;;5074179;28;20024;-76
2023/04/16 10:18:44;;;;;;;10.48;7.80;;;11.90;99.90;;;;;;5078455;28;20467;-76
2023/04/16 10:21:11;;;;;;;15.35;8.63;;;11.50;99.90;;;;;;5070259;28;20043;-76
2023/04/16 10:23:38;;;;;;;15.55;7.97;;;11.50;99.90;;;;;;5072709;28;20401;-76
2023/04/16 10:26:05;;;;;;;15.00;8.07;;;11.50;99.90;;;;;;5070963;28;20400;-75
2023/04/16 10:28:33;;;;;;;12.27;7.60;;;11.30;99.90;;;;;;5071465;28;20033;-75
2023/04/16 10:31:02;;;;;;;15.95;7.95;;;11.50;99.90;;;;;;5073160;28;20041;-76
2023/04/16 10:33:32;;;;;;;10.38;8.00;;;11.70;99.90;;;;;;5074538;28;20586;-76
2023/04/16 10:36:08;;;;;;;15.80;8.55;;;11.80;99.90;;;;;;5072444;28;20044;-76
2023/04/16 10:38:36;;;;;;;20.15;7.32;;;11.50;99.90;;;;;;5067883;28;20387;-74
2023/04/16 10:41:03;;;;;;;12.63;7.90;;;11.50;99.90;;;;;;5068973;28;20029;-75
2023/04/16 10:43:38;;;;;;;11.32;7.90;;;11.60;99.90;;;;;;5070331;28;20029;-76
2023/04/16 10:46:29;;;;;;;12.25;7.95;;;11.60;99.90;;;;;;5071138;28;20480;-74
2023/04/16 10:49:00;;;;;;;12.05;7.82;;;11.60;99.90;;;;;;5067721;28;20028;-74
2023/04/16 10:51:34;;;;;;;11.15;8.05;;;11.50;99.90;;;;;;5074766;28;20081;-73
2023/04/16 10:54:30;;;;;;;14.77;8.48;;;11.30;99.90;;;;;;5068525;28;20052;-75
2023/04/16 10:56:58;;;;;;;12.85;8.40;;;11.10;99.90;;;;;;5070842;28;20032;-77
2023/04/16 10:59:24;;;;;;;10.35;7.95;;;11.00;99.90;;;;;;5071683;28;20047;-74
2023/04/16 11:01:53;;;;;;;14.65;8.65;;;11.10;99.90;;;;;;5072816;28;20051;-76
2023/04/16 11:04:19;;;;;;;12.30;8.23;;;11.10;99.90;;;;;;5070306;28;20036;-76
2023/04/16 11:07:20;;;;;;;13.67;8.30;;;11.20;99.90;;;;;;5066581;28;20088;-76
2023/04/16 11:10:01;;;;;;;12.60;7.75;;;11.20;99.90;;;;;;5094825;28;20101;-78
2023/04/16 11:12:36;;;;;;;11.13;8.25;;;11.00;99.90;;;;;;5074118;28;20098;-75
2023/04/16 11:15:05;;;;;;;12.00;8.82;;;11.00;99.90;;;;;;5067500;28;20032;-77
2023/04/16 11:17:51;;;;;;;14.05;7.88;;;11.00;99.90;;;;;;5066847;28;20036;-74
2023/04/16 11:20:24;;;;;;;13.38;8.25;;;10.90;99.90;;;;;;5067326;28;20114;-75
2023/04/16 11:22:54;;;;;;;14.60;8.90;;;11.10;99.90;;;;;;5071145;28;20020;-74
2023/04/16 11:25:30;;;;;;;15.80;10.00;;;11.20;99.90;;;;;;5069280;28;20020;-76
2023/04/16 11:27:57;;;;;;;14.70;9.95;;;11.40;99.90;;;;;;5066846;28;20591;-77
2023/04/16 11:30:32;;;;;;;16.48;10.13;;;11.50;99.90;;;;;;5071607;28;20155;-76
2023/04/16 11:32:58;;;;;;;21.17;11.20;;;11.70;99.90;;;;;;5071550;28;20029;-74
2023/04/16 11:35:24;;;;;;;20.33;11.70;;;11.80;99.90;;;;;;5073572;28;20410;-75
2023/04/16 11:37:55;;;;;;;16.07;9.43;;;12.30;99.90;;;;;;5066913;28;20312;-77
2023/04/16 11:40:21;;;;;;;16.55;10.90;;;12.30;99.90;;;;;;5065343;28;20823;-76
2023/04/16 11:42:46;;;;;;;21.20;10.30;;;12.30;99.90;;;;;;5063128;28;20042;-76
2023/04/16 11:45:12;;;;;;;14.13;9.70;;;12.50;99.90;;;;;;5068087;28;20564;-74
2023/04/16 11:47:50;;;;;;;15.52;9.95;;;12.40;99.90;;;;;;5065653;28;20051;-76
2023/04/16 11:50:27;;;;;;;19.35;10.93;;;11.80;99.90;;;;;;5066591;28;20561;-75
2023/04/16 11:52:55;;;;;;;14.23;10.10;;;11.60;99.90;;;;;;5062755;28;20031;-76
2023/04/16 11:55:22;;;;;;;17.15;10.70;;;11.90;99.90;;;;;;5069852;28;20812;-76
2023/04/16 11:57:48;;;;;;;15.35;10.43;;;12.20;99.90;;;;;;5070137;28;20025;-76
2023/04/16 12:00:14;;;;;;;14.38;10.52;;;11.80;99.90;;;;;;5071835;28;20074;-75
2023/04/16 12:02:48;;;;;;;16.73;10.27;;;11.70;99.90;;;;;;5070359;28;20032;-75
2023/04/16 12:05:39;;;;;;;16.23;11.05;;;11.60;99.90;;;;;;5068026;28;20048;-75
2023/04/16 12:08:07;;;;;;;21.50;10.82;;;11.70;99.90;;;;;;5061541;28;20525;-77
2023/04/16 12:10:35;;;;;;;17.48;10.70;;;11.60;99.90;;;;;;5064308;28;20040;-76
2023/04/16 12:13:15;;;;;;;21.67;11.27;;;11.60;99.90;;;;;;5074015;28;20032;-75
2023/04/16 12:15:50;;;;;;;20.77;9.93;;;11.70;99.90;;;;;;5068700;28;20040;-76
2023/04/16 12:18:18;;;;;;;16.23;9.25;;;11.60;99.90;;;;;;5071113;28;20031;-76
2023/04/16 12:20:46;;;;;;;14.65;9.15;;;11.40;99.90;;;;;;5065765;28;20036;-76
2023/04/16 12:23:29;;;;;;;14.23;9.68;;;11.40;99.90;;;;;;5065229;28;20056;-77
2023/04/16 12:26:00;;;;;;;18.48;10.65;;;11.20;99.90;;;;;;5065115;28;20027;-75
2023/04/16 12:28:34;;;;;;;16.95;10.13;;;11.10;99.90;;;;;;5064654;28;20159;-78
2023/04/16 12:31:01;;;;;;;16.73;9.60;;;11.10;99.90;;;;;;5062447;28;20032;-76
2023/04/16 12:33:27;;;;;;;15.23;9.38;;;11.20;99.90;;;;;;5045864;28;20036;-78
2023/04/16 12:35:52;;;;;;;15.93;10.15;;;11.10;99.90;;;;;;5062026;28;21022;-77
2023/04/16 12:38:18;;;;;;;14.85;10.80;;;11.00;99.90;;;;;;5062777;28;20484;-76
2023/04/16 12:40:45;;;;;;;17.50;10.75;;;11.10;99.90;;;;;;5063347;28;20043;-75